Time;durP1;ratioP1;P1;durP2;ratioP2;P2;SDS_P1;SDS_P2;PMS_P1;PMS_P2;Temp;Humidity;BMP_temperature;BMP_pressure;BME280_temperature;BME280_humidity;BME280_pressure;Samples;Min_cycle;Max_cycle;Signal;HPM_P1;HPM_P2
2022/03/14 00:01:51;;;;;;;34.13;20.67;;;;;;;;;;5064308;28;20211;-77
2022/03/14 00:04:17;;;;;;;32.77;23.10;;;;;;;;;;5069623;28;20169;-78
2022/03/14 00:06:49;;;;;;;25.80;17.97;;;;;;;;;;5069801;28;20180;-78
2022/03/14 00:09:18;;;;;;;24.23;17.37;;;;;;;;;;5068554;28;20264;-77
2022/03/14 00:11:44;;;;;;;25.73;17.07;;;;;;;;;;5058619;28;20307;-77
2022/03/14 00:14:11;;;;;;;21.93;16.83;;;;;;;;;;5069951;28;20188;-77
2022/03/14 00:16:43;;;;;;;23.73;17.57;;;;;;;;;;5068999;28;20185;-77
2022/03/14 00:19:11;;;;;;;22.87;17.40;;;;;;;;;;5069867;28;20177;-77
2022/03/14 00:21:41;;;;;;;25.30;17.97;;;;;;;;;;5064522;28;20825;-77
2022/03/14 00:24:09;;;;;;;22.93;16.87;;;;;;;;;;5069332;28;20170;-77
2022/03/14 00:26:35;;;;;;;22.73;17.30;;;;;;;;;;5066139;28;20670;-77
2022/03/14 00:29:04;;;;;;;23.10;16.40;;;;;;;;;;5064130;28;20180;-78
2022/03/14 00:31:31;;;;;;;22.30;16.97;;;;;;;;;;5064289;28;20205;-78
2022/03/14 00:33:57;;;;;;;22.07;16.00;;;;;;;;;;5067441;28;20177;-77
2022/03/14 00:36:25;;;;;;;24.83;18.00;;;;;;;;;;5070094;28;20257;-77
2022/03/14 00:38:51;;;;;;;26.07;18.43;;;;;;;;;;5070081;28;20181;-78
2022/03/14 00:41:17;;;;;;;23.37;16.23;;;;;;;;;;5067693;28;20598;-77
2022/03/14 00:43:44;;;;;;;21.90;15.67;;;;;;;;;;5074767;28;20204;-77
2022/03/14 00:46:11;;;;;;;23.03;16.63;;;;;;;;;;5074294;28;20189;-77
2022/03/14 00:48:37;;;;;;;21.67;15.87;;;;;;;;;;5056748;28;20965;-78
2022/03/14 00:51:04;;;;;;;22.23;15.27;;;;;;;;;;5071314;28;20278;-77
2022/03/14 00:53:34;;;;;;;24.83;16.67;;;;;;;;;;5069123;28;20173;-78
2022/03/14 00:56:01;;;;;;;21.03;16.60;;;;;;;;;;5068057;28;20258;-77
2022/03/14 00:58:29;;;;;;;24.23;17.33;;;;;;;;;;5071156;28;20190;-78
2022/03/14 01:00:56;;;;;;;22.50;17.17;;;;;;;;;;5072079;28;20298;-79
2022/03/14 01:03:22;;;;;;;23.60;17.23;;;;;;;;;;5073105;28;20794;-78
2022/03/14 01:05:48;;;;;;;21.67;16.43;;;;;;;;;;5067868;28;20177;-77
2022/03/14 01:08:15;;;;;;;21.47;16.07;;;;;;;;;;5070951;28;20185;-78
2022/03/14 01:10:41;;;;;;;20.37;15.87;;;;;;;;;;5072277;28;20208;-78
2022/03/14 01:13:10;;;;;;;22.40;16.47;;;;;;;;;;5070978;28;20181;-77
2022/03/14 01:15:36;;;;;;;24.37;16.27;;;;;;;;;;5071209;28;20251;-80
2022/03/14 01:18:02;;;;;;;20.93;16.13;;;;;;;;;;5070978;28;20219;-78
2022/03/14 01:20:28;;;;;;;22.67;16.87;;;;;;;;;;5066316;28;20585;-78
2022/03/14 01:22:55;;;;;;;22.90;15.90;;;;;;;;;;5070734;28;20205;-79
2022/03/14 01:25:23;;;;;;;21.70;16.33;;;;;;;;;;5066720;28;20174;-78
2022/03/14 01:27:50;;;;;;;23.27;16.00;;;;;;;;;;5069266;28;20675;-78
2022/03/14 01:30:17;;;;;;;21.73;16.03;;;;;;;;;;5071066;28;20212;-79
2022/03/14 01:32:43;;;;;;;24.33;17.03;;;;;;;;;;5073085;28;20656;-78
2022/03/14 01:35:09;;;;;;;23.97;17.50;;;;;;;;;;5072765;28;20200;-78
2022/03/14 01:37:36;;;;;;;22.57;16.80;;;;;;;;;;5073680;28;20908;-78
2022/03/14 01:40:06;;;;;;;23.70;16.80;;;;;;;;;;5073818;28;20607;-78
2022/03/14 01:42:32;;;;;;;24.13;17.17;;;;;;;;;;5073439;28;20287;-78
2022/03/14 01:44:58;;;;;;;22.13;16.23;;;;;;;;;;5068054;28;20265;-78
2022/03/14 01:47:24;;;;;;;22.07;15.73;;;;;;;;;;5073701;28;20715;-78
2022/03/14 01:49:50;;;;;;;20.67;15.03;;;;;;;;;;5070833;28;20174;-78
2022/03/14 01:52:16;;;;;;;21.77;15.23;;;;;;;;;;5069029;28;20204;-80
2022/03/14 01:54:43;;;;;;;19.77;15.37;;;;;;;;;;5071650;28;20235;-78
2022/03/14 01:57:13;;;;;;;21.57;15.63;;;;;;;;;;5068704;28;20196;-78
2022/03/14 01:59:39;;;;;;;20.73;15.23;;;;;;;;;;5065274;28;20185;-78
2022/03/14 02:02:15;;;;;;;18.90;14.53;;;;;;;;;;5067640;28;20217;-78
2022/03/14 02:04:43;;;;;;;19.03;14.30;;;;;;;;;;5069023;28;20189;-78
2022/03/14 02:07:09;;;;;;;20.97;16.30;;;;;;;;;;5068681;28;20181;-78
2022/03/14 02:09:36;;;;;;;19.07;14.27;;;;;;;;;;5069155;28;20189;-78
2022/03/14 02:12:02;;;;;;;20.80;14.77;;;;;;;;;;5067355;28;20208;-78
2022/03/14 02:14:30;;;;;;;20.23;15.47;;;;;;;;;;5072841;28;20177;-78
2022/03/14 02:16:56;;;;;;;20.00;14.57;;;;;;;;;;5068806;28;20346;-79
2022/03/14 02:19:22;;;;;;;20.10;14.63;;;;;;;;;;5069920;28;20192;-79
2022/03/14 02:21:48;;;;;;;18.10;13.40;;;;;;;;;;5062987;28;20216;-79
2022/03/14 02:24:15;;;;;;;18.97;14.47;;;;;;;;;;5070277;28;20222;-78
2022/03/14 02:26:44;;;;;;;20.30;15.23;;;;;;;;;;5069480;28;20284;-78
2022/03/14 02:29:11;;;;;;;20.17;14.17;;;;;;;;;;5064901;28;20200;-78
2022/03/14 02:31:37;;;;;;;19.23;14.10;;;;;;;;;;5082314;28;20228;-81
2022/03/14 02:34:07;;;;;;;20.37;14.97;;;;;;;;;;5067557;28;20648;-78
2022/03/14 02:36:37;;;;;;;19.20;14.47;;;;;;;;;;5068149;28;20197;-79
2022/03/14 02:39:04;;;;;;;17.60;13.40;;;;;;;;;;5069673;28;20184;-81
2022/03/14 02:41:32;;;;;;;18.27;14.53;;;;;;;;;;5066773;28;20538;-78
2022/03/14 02:43:59;;;;;;;20.53;15.13;;;;;;;;;;5063462;28;20178;-78
2022/03/14 02:46:25;;;;;;;21.97;15.03;;;;;;;;;;5065409;28;20224;-79
2022/03/14 02:48:51;;;;;;;18.37;15.13;;;;;;;;;;5057310;28;20549;-79
2022/03/14 02:51:18;;;;;;;19.50;15.30;;;;;;;;;;5067663;28;20626;-79
2022/03/14 02:53:44;;;;;;;25.27;17.27;;;;;;;;;;5088586;28;20736;-78
2022/03/14 02:56:10;;;;;;;24.33;18.87;;;;;;;;;;5071494;28;20222;-79
2022/03/14 02:58:39;;;;;;;21.73;17.80;;;;;;;;;;5070995;28;20782;-79
2022/03/14 03:01:05;;;;;;;23.53;17.63;;;;;;;;;;5064284;28;20552;-78
2022/03/14 03:03:33;;;;;;;23.37;18.30;;;;;;;;;;5071741;28;20200;-78
2022/03/14 03:06:00;;;;;;;26.70;19.53;;;;;;;;;;5070505;28;20196;-78
2022/03/14 03:08:27;;;;;;;26.43;17.90;;;;;;;;;;5066228;28;20653;-79
2022/03/14 03:10:57;;;;;;;23.17;17.93;;;;;;;;;;5069123;28;20202;-78
2022/03/14 03:13:25;;;;;;;22.07;16.57;;;;;;;;;;5070426;28;20188;-78
2022/03/14 03:15:53;;;;;;;21.10;17.13;;;;;;;;;;5070607;28;20196;-78
2022/03/14 03:18:19;;;;;;;19.17;15.73;;;;;;;;;;5070203;28;20181;-78
2022/03/14 03:20:45;;;;;;;21.10;16.17;;;;;;;;;;5070605;28;20209;-78
2022/03/14 03:23:11;;;;;;;18.03;13.87;;;;;;;;;;5069546;28;20193;-78
2022/03/14 03:25:37;;;;;;;22.20;16.13;;;;;;;;;;5071697;28;20222;-79
2022/03/14 03:28:04;;;;;;;18.83;15.20;;;;;;;;;;5069168;28;20212;-78
2022/03/14 03:30:30;;;;;;;18.67;14.73;;;;;;;;;;5070308;28;20259;-78
2022/03/14 03:32:56;;;;;;;21.13;16.43;;;;;;;;;;5069219;28;20187;-80
2022/03/14 03:35:22;;;;;;;21.70;15.70;;;;;;;;;;5070877;28;20177;-78
2022/03/14 03:37:49;;;;;;;17.10;13.93;;;;;;;;;;5063246;28;20859;-78
2022/03/14 03:40:15;;;;;;;18.40;13.83;;;;;;;;;;5086104;28;20231;-79
2022/03/14 03:42:42;;;;;;;17.00;12.83;;;;;;;;;;5085978;28;20296;-78
2022/03/14 03:45:09;;;;;;;13.67;10.90;;;;;;;;;;5071064;28;20193;-78
2022/03/14 03:47:35;;;;;;;12.30;9.93;;;;;;;;;;5060939;28;20182;-79
2022/03/14 03:50:01;;;;;;;10.07;6.97;;;;;;;;;;5059649;28;22057;-79
2022/03/14 03:52:27;;;;;;;5.83;3.93;;;;;;;;;;5063900;28;20690;-79
2022/03/14 03:54:54;;;;;;;3.30;2.57;;;;;;;;;;5068973;28;20184;-79
2022/03/14 03:57:20;;;;;;;2.47;2.00;;;;;;;;;;5071105;28;20532;-78
2022/03/14 03:59:46;;;;;;;2.80;1.70;;;;;;;;;;5082716;28;20206;-78
2022/03/14 04:02:12;;;;;;;3.40;1.90;;;;;;;;;;5081026;28;20594;-79
2022/03/14 04:04:39;;;;;;;2.40;2.10;;;;;;;;;;5068157;28;20177;-78
2022/03/14 04:07:08;;;;;;;2.33;2.03;;;;;;;;;;5069292;28;20176;-78
2022/03/14 04:09:34;;;;;;;3.70;2.50;;;;;;;;;;5071405;28;20259;-78
2022/03/14 04:12:00;;;;;;;4.20;3.20;;;;;;;;;;5067834;28;20196;-78
2022/03/14 04:14:27;;;;;;;4.27;3.10;;;;;;;;;;5050971;28;20185;-81
2022/03/14 04:16:54;;;;;;;4.67;3.10;;;;;;;;;;5065637;28;20551;-78
2022/03/14 04:19:20;;;;;;;4.07;3.47;;;;;;;;;;5068380;28;20652;-79
2022/03/14 04:21:52;;;;;;;3.80;3.33;;;;;;;;;;5064146;28;20201;-79
2022/03/14 04:24:18;;;;;;;3.53;3.10;;;;;;;;;;5065191;28;20256;-78
2022/03/14 04:26:46;;;;;;;3.47;3.17;;;;;;;;;;5068867;28;20166;-80
2022/03/14 04:29:14;;;;;;;4.40;2.97;;;;;;;;;;5066425;28;20657;-78
2022/03/14 04:31:41;;;;;;;4.13;2.80;;;;;;;;;;5059366;28;21813;-78
2022/03/14 04:34:07;;;;;;;3.60;2.80;;;;;;;;;;5067175;28;20177;-78
2022/03/14 04:36:34;;;;;;;6.27;2.90;;;;;;;;;;5066176;28;20649;-77
2022/03/14 04:39:00;;;;;;;4.03;2.90;;;;;;;;;;5049121;28;21006;-78
2022/03/14 04:41:26;;;;;;;2.90;2.60;;;;;;;;;;5066518;28;20208;-77
2022/03/14 04:43:52;;;;;;;3.20;2.90;;;;;;;;;;5041080;28;20209;-78
2022/03/14 04:46:21;;;;;;;3.07;2.77;;;;;;;;;;5070873;28;20181;-78
2022/03/14 04:48:47;;;;;;;2.70;2.50;;;;;;;;;;5070742;28;20185;-78
2022/03/14 04:51:13;;;;;;;3.97;2.80;;;;;;;;;;5069369;28;20220;-78
2022/03/14 04:53:39;;;;;;;3.33;2.73;;;;;;;;;;5067969;28;20335;-78
2022/03/14 04:56:06;;;;;;;3.77;2.37;;;;;;;;;;5066525;28;20597;-79
2022/03/14 04:58:32;;;;;;;3.30;2.43;;;;;;;;;;5068295;28;20223;-78
2022/03/14 05:00:59;;;;;;;2.97;2.30;;;;;;;;;;5055453;28;20688;-79
2022/03/14 05:03:27;;;;;;;2.60;2.40;;;;;;;;;;5060082;28;20247;-78
2022/03/14 05:05:53;;;;;;;2.97;2.30;;;;;;;;;;5069981;28;20582;-79
2022/03/14 05:08:20;;;;;;;2.40;2.07;;;;;;;;;;5069291;28;20231;-78
2022/03/14 05:10:46;;;;;;;3.13;2.30;;;;;;;;;;5066591;28;20668;-79
2022/03/14 05:13:12;;;;;;;3.70;2.30;;;;;;;;;;5068181;28;20673;-79
2022/03/14 05:15:38;;;;;;;3.60;2.40;;;;;;;;;;5067283;28;20903;-79
2022/03/14 05:18:04;;;;;;;2.37;2.17;;;;;;;;;;5066570;28;20220;-78
2022/03/14 05:20:31;;;;;;;5.17;2.70;;;;;;;;;;5063931;28;20233;-79
2022/03/14 05:22:57;;;;;;;3.10;2.67;;;;;;;;;;5067661;28;20217;-78
2022/03/14 05:25:24;;;;;;;2.93;2.50;;;;;;;;;;5063725;28;20195;-78
2022/03/14 05:27:52;;;;;;;3.10;2.47;;;;;;;;;;5070699;28;20177;-78
2022/03/14 05:30:18;;;;;;;2.60;2.30;;;;;;;;;;5070706;28;20241;-78
2022/03/14 05:32:45;;;;;;;31.43;23.70;;;;;;;;;;5071920;28;21039;-78
2022/03/14 05:35:11;;;;;;;10.10;8.50;;;;;;;;;;5066166;28;20181;-78
2022/03/14 05:37:39;;;;;;;4.70;3.80;;;;;;;;;;5072502;28;20177;-78
2022/03/14 05:40:06;;;;;;;3.63;3.07;;;;;;;;;;5069806;28;20181;-78
2022/03/14 05:42:32;;;;;;;2.83;2.50;;;;;;;;;;5067545;28;20205;-78
2022/03/14 05:44:58;;;;;;;3.03;2.20;;;;;;;;;;5066121;28;20174;-78
2022/03/14 05:47:24;;;;;;;2.57;2.37;;;;;;;;;;5072659;28;20594;-78
2022/03/14 05:49:50;;;;;;;4.10;2.83;;;;;;;;;;5071452;28;20181;-78
2022/03/14 05:52:21;;;;;;;3.27;2.50;;;;;;;;;;5069261;28;20197;-78
2022/03/14 05:54:47;;;;;;;2.73;2.10;;;;;;;;;;5069770;28;20288;-78
2022/03/14 05:57:14;;;;;;;5.07;3.40;;;;;;;;;;5065019;28;20193;-79
2022/03/14 05:59:40;;;;;;;3.20;2.40;;;;;;;;;;5070649;28;20193;-80
2022/03/14 06:02:06;;;;;;;2.83;2.33;;;;;;;;;;5069975;28;20306;-79
2022/03/14 06:04:33;;;;;;;3.77;2.13;;;;;;;;;;5071536;28;20227;-78
2022/03/14 06:06:59;;;;;;;2.83;2.00;;;;;;;;;;5070142;28;20191;-78
2022/03/14 06:09:25;;;;;;;2.77;2.07;;;;;;;;;;5067572;28;20264;-78
2022/03/14 06:11:52;;;;;;;2.10;1.83;;;;;;;;;;5070187;28;20216;-77
2022/03/14 06:14:18;;;;;;;2.20;2.00;;;;;;;;;;5069303;28;20641;-78
2022/03/14 06:16:44;;;;;;;2.60;1.90;;;;;;;;;;5069305;28;20612;-79
2022/03/14 06:19:10;;;;;;;3.57;2.40;;;;;;;;;;5067418;28;20226;-81
2022/03/14 06:21:39;;;;;;;3.37;2.40;;;;;;;;;;5067233;28;20759;-78
2022/03/14 06:24:09;;;;;;;4.77;2.53;;;;;;;;;;5071398;28;20652;-78
2022/03/14 06:26:35;;;;;;;2.30;2.10;;;;;;;;;;5071622;28;20268;-79
2022/03/14 06:29:02;;;;;;;4.47;2.70;;;;;;;;;;5066392;28;20174;-78
2022/03/14 06:31:30;;;;;;;4.93;3.10;;;;;;;;;;5060734;28;20201;-78
2022/03/14 06:33:56;;;;;;;3.47;2.37;;;;;;;;;;5069027;28;20529;-78
2022/03/14 06:36:23;;;;;;;4.10;3.20;;;;;;;;;;5069978;28;20489;-78
2022/03/14 06:38:49;;;;;;;3.67;3.00;;;;;;;;;;5064863;28;20578;-78
2022/03/14 06:41:16;;;;;;;2.80;2.50;;;;;;;;;;5077315;28;20208;-78
2022/03/14 06:43:42;;;;;;;4.60;2.40;;;;;;;;;;5078458;28;20205;-80
2022/03/14 06:46:09;;;;;;;3.23;2.80;;;;;;;;;;5078462;28;20184;-81
2022/03/14 06:48:40;;;;;;;3.67;2.40;;;;;;;;;;5081362;28;20220;-82
2022/03/14 06:51:09;;;;;;;3.00;2.30;;;;;;;;;;5078282;28;20248;-81
2022/03/14 06:53:35;;;;;;;4.93;2.80;;;;;;;;;;5075062;28;20186;-81
2022/03/14 06:56:02;;;;;;;4.20;2.90;;;;;;;;;;5081697;28;20181;-81
2022/03/14 06:58:29;;;;;;;3.30;2.43;;;;;;;;;;5078101;28;20331;-81
2022/03/14 07:00:57;;;;;;;3.33;2.73;;;;;;;;;;5077950;28;20248;-81
2022/03/14 07:03:26;;;;;;;3.87;2.50;;;;;;;;;;5064533;28;20277;-82
2022/03/14 07:05:53;;;;;;;4.30;2.60;;;;;;;;;;5078805;28;20188;-81
2022/03/14 07:08:20;;;;;;;3.90;2.63;;;;;;;;;;5043226;28;20208;-81
2022/03/14 07:10:46;;;;;;;4.07;2.87;;;;;;;;;;5070278;28;20224;-81
2022/03/14 07:13:12;;;;;;;7.43;3.10;;;;;;;;;;5072489;28;20190;-81
2022/03/14 07:15:38;;;;;;;4.70;2.83;;;;;;;;;;5075095;28;20177;-81
2022/03/14 07:18:05;;;;;;;5.23;3.10;;;;;;;;;;5068568;28;20189;-81
2022/03/14 07:20:31;;;;;;;5.57;2.90;;;;;;;;;;5075381;28;20204;-80
2022/03/14 07:22:58;;;;;;;4.20;2.80;;;;;;;;;;5075299;28;20316;-82
2022/03/14 07:25:32;;;;;;;7.03;3.20;;;;;;;;;;5076260;28;20193;-83
2022/03/14 07:28:00;;;;;;;6.43;3.23;;;;;;;;;;5062378;28;20185;-82
2022/03/14 07:30:26;;;;;;;6.50;3.50;;;;;;;;;;5070815;28;20205;-80
2022/03/14 07:32:52;;;;;;;7.03;3.33;;;;;;;;;;5073586;28;20197;-81
2022/03/14 07:35:19;;;;;;;7.47;3.87;;;;;;;;;;5080249;28;20200;-81
2022/03/14 07:37:45;;;;;;;7.30;3.83;;;;;;;;;;5082832;28;20203;-81
2022/03/14 07:40:12;;;;;;;5.90;3.23;;;;;;;;;;5069199;28;20938;-81
2022/03/14 07:42:39;;;;;;;5.97;3.67;;;;;;;;;;5055457;28;20213;-78
2022/03/14 07:45:06;;;;;;;6.07;3.20;;;;;;;;;;5052676;28;20177;-79
2022/03/14 07:47:32;;;;;;;7.93;3.63;;;;;;;;;;5070081;28;20671;-79
2022/03/14 07:49:58;;;;;;;7.97;3.30;;;;;;;;;;5069651;28;20234;-79
2022/03/14 07:52:25;;;;;;;8.30;3.70;;;;;;;;;;5065049;28;20185;-79
2022/03/14 07:54:51;;;;;;;6.97;3.70;;;;;;;;;;5063467;28;20690;-79
2022/03/14 07:57:18;;;;;;;7.77;3.90;;;;;;;;;;5060364;28;20848;-80
2022/03/14 07:59:46;;;;;;;6.17;3.03;;;;;;;;;;5068262;28;20232;-80
2022/03/14 08:02:13;;;;;;;9.23;4.07;;;;;;;;;;5072263;28;20300;-81
2022/03/14 08:04:40;;;;;;;9.70;4.27;;;;;;;;;;5065964;28;20193;-81
2022/03/14 08:07:06;;;;;;;9.10;4.27;;;;;;;;;;5075154;28;20296;-81
2022/03/14 08:09:33;;;;;;;9.30;4.40;;;;;;;;;;5091519;28;20181;-80
2022/03/14 08:12:00;;;;;;;8.17;4.67;;;;;;;;;;5074801;28;20205;-80
2022/03/14 08:14:27;;;;;;;9.67;4.57;;;;;;;;;;5070992;28;20259;-80
2022/03/14 08:16:53;;;;;;;7.37;4.20;;;;;;;;;;5088269;28;20185;-82
2022/03/14 08:19:20;;;;;;;9.27;4.07;;;;;;;;;;5073992;28;20180;-76
2022/03/14 08:21:47;;;;;;;7.87;3.97;;;;;;;;;;5070108;28;20201;-80
2022/03/14 08:24:14;;;;;;;7.53;4.33;;;;;;;;;;5075237;28;20181;-81
2022/03/14 08:26:42;;;;;;;6.50;4.07;;;;;;;;;;5052153;28;20178;-80
2022/03/14 08:29:11;;;;;;;8.27;3.97;;;;;;;;;;5065778;28;20283;-76
2022/03/14 08:31:37;;;;;;;9.43;4.57;;;;;;;;;;5064882;28;20782;-77
2022/03/14 08:34:06;;;;;;;8.57;3.97;;;;;;;;;;5071140;28;20712;-77
2022/03/14 08:36:36;;;;;;;8.77;3.60;;;;;;;;;;5069484;28;20596;-73
2022/03/14 08:39:04;;;;;;;8.10;4.00;;;;;;;;;;5071877;28;20184;-77
2022/03/14 08:41:31;;;;;;;6.77;3.60;;;;;;;;;;5069691;28;20228;-77
2022/03/14 08:43:57;;;;;;;8.17;3.80;;;;;;;;;;5069793;28;20292;-80
2022/03/14 08:46:24;;;;;;;8.50;3.63;;;;;;;;;;5087739;28;20212;-80
2022/03/14 08:48:51;;;;;;;6.13;3.57;;;;;;;;;;5072082;28;20178;-79
2022/03/14 08:51:17;;;;;;;9.67;3.90;;;;;;;;;;5068634;28;20248;-78
2022/03/14 08:53:43;;;;;;;6.30;3.60;;;;;;;;;;5071156;28;20264;-79
2022/03/14 08:56:12;;;;;;;10.33;4.20;;;;;;;;;;5042078;28;20193;-79
2022/03/14 08:58:38;;;;;;;11.03;4.40;;;;;;;;;;5067884;28;20550;-79
2022/03/14 09:01:07;;;;;;;9.53;3.97;;;;;;;;;;5066536;28;20221;-79
2022/03/14 09:03:33;;;;;;;8.47;3.70;;;;;;;;;;5071841;28;20204;-79
2022/03/14 09:05:59;;;;;;;6.67;3.67;;;;;;;;;;5054366;28;20272;-79
2022/03/14 09:08:26;;;;;;;8.33;3.53;;;;;;;;;;5072027;28;20181;-79
2022/03/14 09:10:53;;;;;;;10.07;3.03;;;;;;;;;;5066420;28;20205;-79
2022/03/14 09:13:21;;;;;;;7.80;3.00;;;;;;;;;;5065550;28;20664;-79
2022/03/14 09:15:48;;;;;;;6.47;2.70;;;;;;;;;;5068717;28;20189;-79
2022/03/14 09:18:15;;;;;;;7.17;2.70;;;;;;;;;;5071578;28;20189;-79
2022/03/14 09:20:42;;;;;;;8.57;2.80;;;;;;;;;;5064905;28;20715;-80
2022/03/14 09:23:10;;;;;;;7.47;2.80;;;;;;;;;;5066132;28;20303;-79
2022/03/14 09:25:36;;;;;;;6.13;2.80;;;;;;;;;;5066959;28;20172;-79
2022/03/14 09:28:03;;;;;;;4.97;2.63;;;;;;;;;;5069607;28;20276;-78
2022/03/14 09:30:29;;;;;;;5.83;2.70;;;;;;;;;;5069369;28;20223;-79
2022/03/14 09:32:56;;;;;;;8.00;2.50;;;;;;;;;;5068661;28;20272;-78
2022/03/14 09:35:23;;;;;;;6.53;2.77;;;;;;;;;;5069346;28;20221;-79
2022/03/14 09:37:50;;;;;;;6.03;2.90;;;;;;;;;;5069215;28;20201;-79
2022/03/14 09:40:17;;;;;;;7.10;2.50;;;;;;;;;;5067845;28;20300;-78
2022/03/14 09:42:44;;;;;;;7.03;2.80;;;;;;;;;;5067043;28;20288;-79
2022/03/14 09:45:12;;;;;;;7.23;2.80;;;;;;;;;;5065889;28;20173;-78
2022/03/14 09:47:39;;;;;;;8.50;2.80;;;;;;;;;;5068300;28;20219;-79
2022/03/14 09:50:08;;;;;;;5.40;2.50;;;;;;;;;;5068893;28;20192;-79
2022/03/14 09:52:37;;;;;;;5.77;2.33;;;;;;;;;;5066165;28;20185;-79
2022/03/14 09:55:05;;;;;;;7.47;2.33;;;;;;;;;;5067478;28;20204;-78
2022/03/14 09:57:32;;;;;;;7.13;2.83;;;;;;;;;;5063844;28;20657;-78
2022/03/14 09:59:58;;;;;;;7.20;2.80;;;;;;;;;;5067361;28;20201;-79
2022/03/14 10:02:25;;;;;;;7.97;3.03;;;;;;;;;;5068167;28;20579;-79
2022/03/14 10:04:51;;;;;;;5.50;2.70;;;;;;;;;;5075844;28;20269;-79
2022/03/14 10:07:18;;;;;;;5.07;2.53;;;;;;;;;;5071528;28;20231;-77
2022/03/14 10:09:45;;;;;;;6.30;2.60;;;;;;;;;;5066554;28;20234;-79
2022/03/14 10:12:13;;;;;;;6.37;2.80;;;;;;;;;;5067882;28;20240;-79
2022/03/14 10:14:39;;;;;;;5.07;2.20;;;;;;;;;;5068080;28;20665;-80
2022/03/14 10:17:05;;;;;;;7.30;2.43;;;;;;;;;;5067815;28;20205;-79
2022/03/14 10:19:36;;;;;;;7.07;2.10;;;;;;;;;;5064755;28;20241;-79
2022/03/14 10:22:13;;;;;;;5.93;1.93;;;;;;;;;;5066506;28;20216;-79
2022/03/14 10:24:40;;;;;;;5.93;1.97;;;;;;;;;;5067167;28;20169;-79
2022/03/14 10:27:06;;;;;;;4.77;2.00;;;;;;;;;;5069082;28;20181;-79
2022/03/14 10:29:33;;;;;;;4.87;2.40;;;;;;;;;;5065029;28;20201;-78
2022/03/14 10:32:01;;;;;;;5.80;2.30;;;;;;;;;;5069439;28;20551;-78
2022/03/14 10:34:27;;;;;;;7.87;3.30;;;;;;;;;;5068473;28;20185;-78
2022/03/14 10:36:57;;;;;;;10.03;2.60;;;;;;;;;;5064412;28;20184;-79
2022/03/14 10:39:27;;;;;;;5.27;2.23;;;;;;;;;;5066817;28;20238;-78
2022/03/14 10:42:07;;;;;;;4.67;2.03;;;;;;;;;;5047791;28;20691;-78
2022/03/14 10:44:35;;;;;;;4.43;2.00;;;;;;;;;;5071042;28;20188;-77
2022/03/14 10:47:02;;;;;;;4.07;1.87;;;;;;;;;;5066115;28;20622;-77
2022/03/14 10:49:30;;;;;;;3.80;2.30;;;;;;;;;;5069655;28;20189;-77
2022/03/14 10:51:58;;;;;;;4.50;1.90;;;;;;;;;;5067766;28;20197;-78
2022/03/14 10:54:24;;;;;;;7.13;2.03;;;;;;;;;;5067930;28;20181;-77
2022/03/14 10:57:17;;;;;;;5.47;2.10;;;;;;;;;;5070338;28;20173;-76
2022/03/14 10:59:45;;;;;;;5.80;2.10;;;;;;;;;;5067395;28;20204;-77
2022/03/14 11:02:14;;;;;;;9.77;1.90;;;;;;;;;;5070109;28;20236;-79
2022/03/14 11:04:57;;;;;;;11.10;2.00;;;;;;;;;;5068757;28;20185;-77
2022/03/14 11:07:27;;;;;;;4.10;2.10;;;;;;;;;;5071118;28;20671;-77
2022/03/14 11:09:57;;;;;;;5.57;2.00;;;;;;;;;;5073627;28;20265;-80
2022/03/14 11:12:24;;;;;;;5.80;2.10;;;;;;;;;;5064197;28;20698;-79
2022/03/14 11:14:52;;;;;;;5.37;1.70;;;;;;;;;;5068722;28;20193;-79
2022/03/14 11:17:23;;;;;;;8.33;2.30;;;;;;;;;;5068647;28;20189;-78
2022/03/14 11:19:50;;;;;;;3.77;1.60;;;;;;;;;;5065902;28;20637;-80
2022/03/14 11:22:17;;;;;;;5.27;1.70;;;;;;;;;;5078025;28;20208;-78
2022/03/14 11:24:45;;;;;;;5.27;1.80;;;;;;;;;;5065567;28;20195;-78
2022/03/14 11:27:14;;;;;;;3.57;1.87;;;;;;;;;;5068290;28;20185;-76
2022/03/14 11:29:42;;;;;;;4.77;1.93;;;;;;;;;;5063797;28;20201;-77
2022/03/14 11:32:09;;;;;;;3.37;1.73;;;;;;;;;;5063412;28;20570;-78
2022/03/14 11:34:36;;;;;;;3.07;1.80;;;;;;;;;;5064135;28;20189;-78
2022/03/14 11:37:04;;;;;;;5.43;1.90;;;;;;;;;;5064407;28;20189;-78
2022/03/14 11:39:31;;;;;;;5.67;1.90;;;;;;;;;;5067160;28;20181;-79
2022/03/14 11:41:59;;;;;;;4.73;1.83;;;;;;;;;;5067168;28;20276;-78
2022/03/14 11:44:26;;;;;;;4.00;1.70;;;;;;;;;;5061323;28;20219;-78
2022/03/14 11:46:55;;;;;;;2.27;1.40;;;;;;;;;;5064158;28;20189;-81
2022/03/14 11:49:25;;;;;;;3.77;1.50;;;;;;;;;;5060050;28;20847;-78
2022/03/14 11:51:51;;;;;;;5.63;1.73;;;;;;;;;;5065163;28;20250;-79
2022/03/14 11:54:17;;;;;;;2.60;1.50;;;;;;;;;;5066510;28;20227;-79
2022/03/14 11:56:54;;;;;;;3.70;1.70;;;;;;;;;;5066053;28;20173;-77
2022/03/14 11:59:27;;;;;;;4.00;1.70;;;;;;;;;;5064516;28;20263;-79
2022/03/14 12:01:55;;;;;;;4.33;1.77;;;;;;;;;;5064623;28;20201;-79
2022/03/14 12:04:29;;;;;;;4.37;1.67;;;;;;;;;;5046303;28;20192;-80
2022/03/14 12:06:55;;;;;;;7.27;2.10;;;;;;;;;;5051415;28;20180;-79
2022/03/14 12:09:27;;;;;;;4.83;1.60;;;;;;;;;;5066569;28;20177;-80
2022/03/14 12:11:58;;;;;;;4.37;1.87;;;;;;;;;;5061399;28;20209;-80
2022/03/14 12:14:47;;;;;;;4.23;1.70;;;;;;;;;;5080292;28;20182;-82
2022/03/14 12:17:14;;;;;;;2.23;1.43;;;;;;;;;;5068047;28;20193;-82
2022/03/14 12:19:44;;;;;;;2.80;1.80;;;;;;;;;;5065253;28;20189;-80
2022/03/14 12:22:16;;;;;;;5.27;2.03;;;;;;;;;;5064114;28;20224;-79
2022/03/14 12:24:49;;;;;;;4.90;1.97;;;;;;;;;;5064546;28;20234;-83
2022/03/14 12:27:16;;;;;;;3.20;1.70;;;;;;;;;;5064000;28;20177;-79
2022/03/14 12:29:42;;;;;;;4.73;1.77;;;;;;;;;;5069211;28;20200;-79
2022/03/14 12:32:27;;;;;;;3.33;1.80;;;;;;;;;;5069356;28;20283;-80
2022/03/14 12:35:03;;;;;;;2.23;1.50;;;;;;;;;;5063771;28;20218;-79
2022/03/14 12:37:43;;;;;;;2.93;1.30;;;;;;;;;;5065127;28;20185;-77
2022/03/14 12:40:32;;;;;;;3.13;1.70;;;;;;;;;;5068981;28;20242;-77
2022/03/14 12:43:01;;;;;;;4.10;1.80;;;;;;;;;;5063428;28;20221;-79
2022/03/14 12:45:39;;;;;;;4.10;1.50;;;;;;;;;;5063867;28;20189;-80
2022/03/14 12:48:15;;;;;;;4.87;1.80;;;;;;;;;;5063225;28;20195;-81
2022/03/14 12:50:51;;;;;;;3.47;1.70;;;;;;;;;;5065170;28;20205;-81
2022/03/14 12:53:37;;;;;;;2.63;1.40;;;;;;;;;;5065938;28;20199;-77
2022/03/14 12:56:11;;;;;;;3.43;1.77;;;;;;;;;;5061085;28;20190;-83
2022/03/14 12:58:37;;;;;;;3.30;1.90;;;;;;;;;;5065122;28;20648;-81
2022/03/14 13:01:12;;;;;;;3.53;1.53;;;;;;;;;;5070114;28;20722;-83
2022/03/14 13:03:38;;;;;;;3.07;1.67;;;;;;;;;;5075200;28;20223;-84
2022/03/14 13:06:05;;;;;;;4.07;1.40;;;;;;;;;;5076303;28;20173;-83
2022/03/14 13:08:32;;;;;;;2.17;1.43;;;;;;;;;;5071316;28;20232;-84
2022/03/14 13:11:00;;;;;;;4.03;1.97;;;;;;;;;;5072099;28;20205;-83
2022/03/14 13:13:30;;;;;;;2.90;1.87;;;;;;;;;;5072728;28;20207;-83
2022/03/14 13:16:04;;;;;;;4.33;1.83;;;;;;;;;;5057215;28;20192;-84
2022/03/14 13:18:35;;;;;;;3.90;1.90;;;;;;;;;;5070606;28;20207;-84
2022/03/14 13:21:10;;;;;;;2.63;1.77;;;;;;;;;;5065239;28;20220;-83
2022/03/14 13:23:36;;;;;;;3.97;1.70;;;;;;;;;;5068782;28;20255;-83
2022/03/14 13:26:03;;;;;;;3.10;1.70;;;;;;;;;;5053600;28;20610;-82
2022/03/14 13:28:31;;;;;;;3.30;1.60;;;;;;;;;;5061371;28;20182;-83
2022/03/14 13:30:59;;;;;;;2.60;1.73;;;;;;;;;;5068374;28;20208;-82
2022/03/14 13:33:34;;;;;;;4.23;1.60;;;;;;;;;;5069060;28;20478;-83
2022/03/14 13:36:02;;;;;;;3.67;1.80;;;;;;;;;;5066512;28;20208;-82
2022/03/14 13:38:29;;;;;;;3.47;1.77;;;;;;;;;;5070124;28;20192;-83
2022/03/14 13:40:57;;;;;;;2.93;1.60;;;;;;;;;;5083437;28;20673;-82
2022/03/14 13:43:23;;;;;;;5.07;1.83;;;;;;;;;;5070043;28;20214;-82
2022/03/14 13:45:53;;;;;;;2.67;1.70;;;;;;;;;;5070812;28;20280;-82
2022/03/14 13:48:23;;;;;;;5.20;1.90;;;;;;;;;;5034750;28;20620;-83
2022/03/14 13:50:53;;;;;;;2.67;1.87;;;;;;;;;;5071720;28;21208;-82
2022/03/14 13:53:20;;;;;;;3.07;2.00;;;;;;;;;;5063807;28;20181;-79
2022/03/14 13:55:57;;;;;;;4.63;2.20;;;;;;;;;;5070316;28;20644;-81
2022/03/14 13:58:26;;;;;;;3.90;2.10;;;;;;;;;;5069576;28;20204;-81
2022/03/14 14:00:53;;;;;;;4.10;2.43;;;;;;;;;;5070909;28;20821;-81
2022/03/14 14:03:25;;;;;;;4.50;2.10;;;;;;;;;;5048618;28;21281;-81
2022/03/14 14:05:52;;;;;;;3.17;2.10;;;;;;;;;;5072867;28;20198;-83
2022/03/14 14:08:32;;;;;;;4.07;2.30;;;;;;;;;;5067852;28;20190;-83
2022/03/14 14:10:59;;;;;;;4.17;2.00;;;;;;;;;;5066535;28;20197;-83
2022/03/14 14:13:28;;;;;;;2.67;2.00;;;;;;;;;;5058846;28;20478;-82
2022/03/14 14:15:57;;;;;;;4.60;2.20;;;;;;;;;;5070505;28;20204;-83
2022/03/14 14:18:24;;;;;;;3.53;2.20;;;;;;;;;;5068019;28;20173;-83
2022/03/14 14:20:51;;;;;;;3.33;2.47;;;;;;;;;;5064483;28;20200;-84
2022/03/14 14:23:19;;;;;;;3.53;2.40;;;;;;;;;;5068474;28;20236;-83
2022/03/14 14:25:46;;;;;;;3.00;2.20;;;;;;;;;;5068767;28;20237;-84
2022/03/14 14:28:13;;;;;;;3.47;2.37;;;;;;;;;;5070299;28;20181;-84
2022/03/14 14:30:45;;;;;;;3.07;2.03;;;;;;;;;;5067685;28;20217;-79
2022/03/14 14:33:16;;;;;;;3.37;2.37;;;;;;;;;;5065758;28;20187;-80
2022/03/14 14:35:46;;;;;;;2.67;1.83;;;;;;;;;;5066966;28;20174;-82
2022/03/14 14:38:13;;;;;;;3.17;2.07;;;;;;;;;;5075885;28;20179;-83
2022/03/14 14:40:40;;;;;;;3.63;2.20;;;;;;;;;;5072845;28;20695;-81